Bunker Hill, Indiana
Current Conditions -  °F | °C
As of 7:20 AM on Tuesday 27 Jan 2015 (Local Time) from KGUS Reporting Station
Overcast Overcast  
Wind Chill: 13°   Ceiling: 2200
Heat Index: 21°   Visibility: 10mi
Dew Point: 16°   Wind: 7mph
Humidity: 80%   Direction: 50°NE
Pressure: 30.01"   Gusts: NA
Location:  40.66°N, 86.1°W
Report Text: KGUS 271220Z AUTO 05006KT 10SM OVC022 M06/M09 A3001 RMK AO2
Loading
Personal Weather Stations






























Interactive Weather Map New forecast layout! Learn more

10-Day Weather Forecast

Advertisements
Track Severe Weather on mobile